Santa Rosa, Texas
Current Conditions -  °F | °C
As of 12:15 PM on Saturday 20 Dec 2014 (Local Time) from KT65 Reporting Station
Haze Haze  
Wind Chill: 58°   Ceiling: 1300
Heat Index: 58°   Visibility: 5mi
Dew Point: 52°   Wind: 8mph
Humidity: 79%   Direction: 10°N
Pressure: 30.18"   Gusts: NA
Location:  26.26°N, 97.82°W
Report Text: KT65 201815Z AUTO 01007KT 5SM HZ OVC013 15/11 A3018 RMK AO2 T01460110
Loading
Personal Weather Stations






























Interactive Weather Map New forecast layout! Learn more

10-Day Weather Forecast

Advertisements
Track Severe Weather on mobile